.
WxDataArchive / Data Records for 2013-09-24
2013-09-23 September 2013 2013-09-25

Data Records for Tuesday, 24 September 2013

Time	Temp	Chill	HIndex	Humid	Dewpt	 Wind 	HiWind	WindDir	Rain 	Barom 
-----	----	-----	------	-----	-----	------	------	-------	-----	----- 
00:00	50.1	50.1	50.1	78	43.5	0	2	90	0.00	30.098 
00:05	49.9	49.9	49.9	78	43.3	1	3	90	0.00	30.098 
00:10	49.8	49.8	49.8	79	43.6	0	3	90	0.00	30.098 
00:15	49.6	49.6	49.6	79	43.4	0	2	90	0.00	30.093 
00:20	49.5	49.5	49.5	79	43.3	0	1	90	0.00	30.093 
00:25	49.2	49.2	49.2	80	43.3	0	2	90	0.00	30.093 
00:30	49.1	49.1	49.1	80	43.2	0	1	90	0.00	30.092 
00:35	48.9	48.9	48.9	81	43.3	0	1	90	0.00	30.092 
00:40	48.8	48.8	48.8	81	43.2	0	1	90	0.00	30.092 
00:45	48.6	48.6	48.6	81	43.0	0	1	90	0.00	30.093 
00:50	48.6	48.6	48.6	81	43.0	0	2	90	0.00	30.093 
00:55	48.5	48.5	48.5	81	42.9	0	2	90	0.00	30.093 
01:00	48.5	48.5	48.5	81	42.9	0	2	90	0.00	30.092 
01:05	48.5	48.5	48.5	81	42.9	0	2	90	0.00	30.092 
01:10	48.3	48.3	48.3	82	43.1	0	1	90	0.00	30.092 
01:15	48.2	48.2	48.2	82	43.0	0	1	90	0.00	30.092 
01:20	48.0	48.0	48.0	82	42.8	0	1	90	0.00	30.092 
01:25	48.0	48.0	48.0	82	42.8	0	1	90	0.00	30.092 
01:30	47.9	47.9	47.9	83	43.0	0	1	90	0.00	30.092 
01:35	47.7	47.7	47.7	83	42.8	0	2	90	0.00	30.092 
01:40	47.6	47.6	47.6	83	42.7	0	2	90	0.00	30.092 
01:45	47.6	47.6	47.6	83	42.7	0	0	---	0.00	30.091 
01:50	47.3	47.3	47.3	83	42.4	0	0	---	0.00	30.091 
01:55	47.1	47.1	47.1	84	42.5	0	2	90	0.00	30.091 
02:00	47.0	47.0	47.0	84	42.4	0	2	90	0.00	30.092 
02:05	47.0	47.0	47.0	85	42.7	0	2	90	0.00	30.092 
02:10	46.8	46.8	46.8	85	42.5	0	1	90	0.00	30.092 
02:15	46.8	46.8	46.8	85	42.5	0	0	---	0.00	30.089 
02:20	46.7	46.7	46.7	85	42.4	0	0	---	0.00	30.089 
02:25	46.4	46.4	46.4	86	42.4	0	1	90	0.00	30.089 
02:30	46.4	46.4	46.4	86	42.4	0	1	90	0.00	30.091 
02:35	46.2	46.2	46.2	86	42.2	0	1	90	0.00	30.091 
02:40	46.1	46.1	46.1	86	42.1	0	0	---	0.00	30.091 
02:45	46.1	46.1	46.1	87	42.4	0	1	90	0.00	30.092 
02:50	46.0	46.0	46.0	87	42.4	0	0	---	0.00	30.092 
02:55	45.8	45.8	45.8	87	42.2	0	0	---	0.00	30.092 
03:00	45.7	45.7	45.7	87	42.1	0	0	---	0.00	30.095 
03:05	45.4	45.4	45.4	87	41.8	0	0	---	0.00	30.095 
03:10	45.2	45.2	45.2	87	41.6	0	0	---	0.00	30.095 
03:15	45.1	45.1	45.1	88	41.8	0	0	---	0.00	30.095 
03:20	44.9	44.9	44.9	88	41.6	0	0	---	0.00	30.095 
03:25	44.9	44.9	44.9	88	41.6	0	0	---	0.00	30.095 
03:30	44.8	44.8	44.8	88	41.5	0	1	90	0.00	30.093 
03:35	44.9	44.9	44.9	89	41.9	0	1	90	0.00	30.093 
03:40	44.9	44.9	44.9	89	41.9	0	1	90	0.00	30.093 
03:45	45.1	45.1	45.1	89	42.1	0	0	---	0.00	30.091 
03:50	45.1	45.1	45.1	90	42.3	0	1	90	0.00	30.091 
03:55	45.1	45.1	45.1	90	42.3	0	1	90	0.00	30.091 
04:00	45.2	45.2	45.2	90	42.4	0	1	90	0.00	30.090 
04:05	45.1	45.1	45.1	90	42.3	0	1	90	0.00	30.090 
04:10	45.1	45.1	45.1	90	42.3	0	1	90	0.00	30.090 
04:15	45.1	45.1	45.1	90	42.3	0	0	---	0.00	30.091 
04:20	44.9	44.9	44.9	90	42.1	0	0	---	0.00	30.091 
04:25	44.8	44.8	44.8	90	42.0	0	0	---	0.00	30.091 
04:30	44.5	44.5	44.5	90	41.8	0	0	---	0.00	30.088 
04:35	44.3	44.3	44.3	89	41.3	0	0	---	0.00	30.088 
04:40	44.2	44.2	44.2	90	41.5	0	0	---	0.00	30.088 
04:45	44.1	44.1	44.1	90	41.4	0	0	---	0.00	30.093 
04:50	43.9	43.9	43.9	90	41.2	0	0	---	0.00	30.093 
04:55	43.8	43.8	43.8	90	41.1	0	0	---	0.00	30.093 
05:00	43.6	43.6	43.6	90	40.9	0	0	---	0.00	30.094 
05:05	43.5	43.5	43.5	90	40.8	0	0	---	0.00	30.094 
05:10	43.3	43.3	43.3	91	40.9	0	0	---	0.00	30.094 
05:15	43.2	43.2	43.2	91	40.8	0	0	---	0.00	30.095 
05:20	43.2	43.2	43.2	91	40.8	0	0	---	0.00	30.095 
05:25	43.2	43.2	43.2	91	40.8	0	0	---	0.00	30.095 
05:30	43.1	43.1	43.1	91	40.7	0	0	---	0.00	30.097 
05:35	42.9	42.9	42.9	91	40.5	0	0	---	0.00	30.097 
05:40	42.8	42.8	42.8	91	40.4	0	0	---	0.00	30.097 
05:45	42.8	42.8	42.8	92	40.6	0	0	---	0.00	30.100 
05:50	42.8	42.8	42.8	92	40.6	0	0	---	0.00	30.100 
05:55	42.6	42.6	42.6	92	40.4	0	0	---	0.00	30.100 
06:00	42.5	42.5	42.5	92	40.3	0	0	---	0.00	30.102 
06:05	42.3	42.3	42.3	92	40.1	0	0	---	0.00	30.102 
06:10	42.2	42.2	42.2	92	40.0	0	0	---	0.00	30.102 
06:15	42.2	42.2	42.2	92	40.0	0	0	---	0.00	30.106 
06:20	42.1	42.1	42.1	92	39.9	0	0	---	0.00	30.106 
06:25	41.9	41.9	41.9	92	39.7	0	0	---	0.00	30.106 
06:30	41.9	41.9	41.9	92	39.7	0	0	---	0.00	30.105 
06:35	41.9	41.9	41.9	92	39.7	0	0	---	0.00	30.105 
06:40	41.8	41.8	41.8	92	39.6	0	0	---	0.00	30.105 
06:45	41.8	41.8	41.8	92	39.6	0	0	---	0.00	30.101 
06:50	41.6	41.6	41.6	92	39.5	0	0	---	0.00	30.101 
06:55	41.6	41.6	41.6	92	39.5	0	0	---	0.00	30.101 
07:00	41.6	41.6	41.6	92	39.5	0	0	---	0.00	30.109 
07:05	41.5	41.5	41.5	93	39.6	0	0	---	0.00	30.109 
07:10	41.5	41.5	41.5	93	39.6	0	0	---	0.00	30.109 
07:15	41.5	41.5	41.5	93	39.6	0	0	---	0.00	30.115 
07:20	41.5	41.5	41.5	93	39.6	0	0	---	0.00	30.115 
07:25	41.5	41.5	41.5	93	39.6	0	0	---	0.00	30.115 
07:30	41.5	41.5	41.5	93	39.6	0	0	---	0.00	30.112 
07:35	41.5	41.5	41.5	93	39.6	0	0	---	0.00	30.112 
07:40	41.5	41.5	41.5	93	39.6	0	0	---	0.00	30.112 
07:45	41.5	41.5	41.5	93	39.6	0	0	---	0.00	30.114 
07:50	41.5	41.5	41.5	93	39.6	0	0	---	0.00	30.114 
07:55	41.6	41.6	41.6	93	39.7	0	0	---	0.00	30.114 
08:00	41.8	41.8	41.8	94	40.2	0	0	---	0.00	30.115 
08:05	42.2	42.2	42.2	94	40.6	0	0	---	0.00	30.115 
08:10	42.5	42.5	42.5	94	40.9	0	0	---	0.00	30.115 
08:15	42.9	42.9	42.9	94	41.3	0	1	90	0.00	30.119 
08:20	43.5	43.5	43.5	94	41.9	0	1	90	0.00	30.119 
08:25	43.9	43.9	43.9	94	42.3	0	1	90	0.00	30.119 
08:30	44.2	44.2	44.2	94	42.6	0	0	---	0.00	30.117 
08:35	44.5	44.5	44.5	94	42.9	0	1	90	0.00	30.117 
08:40	44.8	44.8	44.8	94	43.2	0	3	90	0.00	30.117 
08:45	45.2	45.2	45.2	94	43.6	0	2	90	0.00	30.113 
08:50	45.5	45.5	45.5	94	43.9	0	1	90	0.00	30.113 
08:55	45.8	45.8	45.8	94	44.2	0	1	90	0.00	30.113 
09:00	46.0	46.0	46.0	93	44.1	0	2	90	0.00	30.106 
09:05	46.2	46.2	46.2	93	44.3	0	2	90	0.00	30.106 
09:10	46.5	46.5	46.5	93	44.6	1	2	90	0.00	30.106 
09:15	47.0	47.0	47.0	92	44.8	0	1	90	0.00	30.111 
09:20	47.4	47.4	47.4	92	45.2	0	2	90	0.00	30.111 
09:25	47.9	47.9	47.9	92	45.7	0	2	90	0.00	30.111 
09:30	48.3	48.3	48.3	91	45.8	0	2	90	0.00	30.110 
09:35	48.8	48.8	48.8	90	46.0	0	2	90	0.00	30.110 
09:40	49.2	49.2	49.2	89	46.1	0	2	90	0.00	30.110 
09:45	49.6	49.6	49.6	88	46.2	0	2	90	0.00	30.105 
09:50	50.2	50.2	50.2	88	46.8	0	2	90	0.00	30.105 
09:55	50.8	50.8	50.8	87	47.1	0	3	90	0.00	30.105 
10:00	51.4	51.4	51.4	85	47.0	0	1	90	0.00	30.103 
10:05	52.2	52.2	52.2	83	47.2	0	2	90	0.00	30.103 
10:10	52.6	52.6	52.6	81	46.9	1	4	90	0.00	30.103 
10:15	53.1	53.1	53.1	79	46.8	1	4	90	0.00	30.097 
10:20	53.5	53.5	53.5	78	46.8	1	4	90	0.00	30.097 
10:25	54.1	54.1	54.1	77	47.0	1	3	90	0.00	30.097 
10:30	54.8	54.8	54.8	75	47.0	1	3	90	0.00	30.095 
10:35	55.4	55.4	55.4	73	46.9	1	5	90	0.00	30.095 
10:40	56.2	56.2	56.2	69	46.2	1	5	90	0.00	30.095 
10:45	56.7	56.7	56.7	67	45.9	2	5	90	0.00	30.091 
10:50	57.3	57.3	57.3	67	46.4	2	5	90	0.00	30.091 
10:55	57.6	57.6	57.6	66	46.3	2	5	90	0.00	30.091 
11:00	58.3	58.3	58.3	65	46.6	1	4	90	0.00	30.088 
11:05	58.6	58.6	58.6	64	46.5	1	5	90	0.00	30.088 
11:10	59.0	59.0	59.0	61	45.6	1	3	90	0.00	30.088 
11:15	59.6	59.6	59.6	60	45.7	1	4	90	0.00	30.084 
11:20	60.4	60.4	60.4	58	45.6	0	2	90	0.00	30.084 
11:25	61.0	61.0	61.0	58	46.1	1	4	90	0.00	30.084 
11:30	60.7	60.7	60.7	58	45.8	2	6	90	0.00	30.077 
11:35	60.7	60.7	60.7	60	46.7	2	5	68	0.00	30.077 
11:40	61.2	61.2	61.2	58	46.3	1	3	135	0.00	30.077 
11:45	61.6	61.6	61.6	55	45.3	1	6	135	0.00	30.073 
11:50	62.1	62.1	62.1	55	45.7	1	4	45	0.00	30.073 
11:55	62.7	62.7	62.7	55	46.3	1	3	45	0.00	30.073 
12:00	62.9	62.9	62.9	53	45.5	2	5	68	0.00	30.067 
12:05	62.4	62.4	62.4	54	45.5	2	4	112	0.00	30.067 
12:10	62.6	62.6	62.6	54	45.7	1	5	90	0.00	30.067 
12:15	62.4	62.4	62.4	54	45.5	2	6	90	0.00	30.063 
12:20	62.1	62.1	62.1	54	45.3	1	4	90	0.00	30.063 
12:25	62.3	62.3	62.3	55	45.9	2	6	90	0.00	30.063 
12:30	62.4	62.4	62.4	55	46.0	2	6	68	0.00	30.059 
12:35	62.7	62.7	62.7	53	45.3	1	4	90	0.00	30.059 
12:40	63.1	63.1	63.1	54	46.2	2	4	135	0.00	30.059 
12:45	63.1	63.1	63.1	52	45.2	2	6	112	0.00	30.051 
12:50	63.1	63.1	63.1	55	46.7	2	5	90	0.00	30.051 
12:55	63.2	63.2	63.2	55	46.8	1	3	90	0.00	30.051 
13:00	63.9	63.9	63.9	53	46.4	1	3	90	0.00	30.043 
13:05	64.2	64.2	64.2	52	46.2	1	4	90	0.00	30.043 
13:10	64.2	64.2	64.2	51	45.7	2	6	90	0.00	30.043 
13:15	64.0	64.0	64.0	52	46.0	1	5	90	0.00	30.034 
13:20	64.3	64.3	64.3	51	45.8	2	9	90	0.00	30.034 
13:25	64.2	64.2	64.2	52	46.2	2	9	90	0.00	30.034 
13:30	64.2	64.2	64.2	50	45.2	2	7	112	0.00	30.028 
13:35	64.2	64.2	64.2	50	45.2	2	6	90	0.00	30.028 
13:40	64.2	64.2	64.2	52	46.2	2	5	68	0.00	30.028 
13:45	64.5	64.5	64.5	50	45.4	2	4	90	0.00	30.019 
13:50	64.8	64.8	64.8	50	45.7	2	7	68	0.00	30.019 
13:55	64.8	64.8	64.8	49	45.2	2	7	90	0.00	30.019 
14:00	65.2	65.2	65.2	51	46.6	2	6	90	0.00	30.011 
14:05	65.2	65.2	65.2	49	45.6	3	10	90	0.00	30.011 
14:10	65.2	65.2	65.2	50	46.1	2	7	112	0.00	30.011 
14:15	65.0	65.0	65.0	48	44.8	3	8	90	0.00	30.008 
14:20	65.0	65.0	65.0	49	45.4	2	5	68	0.00	30.008 
14:25	65.3	65.3	65.3	48	45.1	2	6	112	0.00	30.008 
14:30	65.5	65.5	65.5	48	45.3	3	8	90	0.00	30.001 
14:35	65.6	65.6	65.6	48	45.4	2	6	90	0.00	30.001 
14:40	66.0	66.0	66.0	47	45.2	2	6	90	0.00	30.001 
14:45	66.1	66.1	66.1	46	44.7	2	6	68	0.00	29.995 
14:50	66.3	66.3	66.3	47	45.5	2	7	112	0.00	29.995 
14:55	66.3	66.3	66.3	46	44.9	3	6	90	0.00	29.995 
15:00	66.4	66.4	66.4	46	45.0	3	11	68	0.00	29.989 
15:05	66.1	66.1	66.1	46	44.7	4	9	90	0.00	29.989 
15:10	66.3	66.3	66.3	44	43.7	2	5	90	0.00	29.989 
15:15	66.4	66.4	66.4	45	44.4	2	4	90	0.00	29.989 
15:20	66.4	66.4	66.4	46	45.0	2	6	90	0.00	29.989 
15:25	66.8	66.8	66.8	45	44.8	2	6	112	0.00	29.989 
15:30	66.9	66.9	66.9	44	44.3	2	6	90	0.00	29.983 
15:35	66.9	66.9	66.9	45	44.9	2	7	112	0.00	29.983 
15:40	67.1	67.1	67.1	45	45.0	1	6	112	0.00	29.983 
15:45	67.6	67.6	67.6	43	44.3	2	6	112	0.00	29.979 
15:50	67.6	67.6	67.6	44	44.9	2	5	112	0.00	29.979 
15:55	67.6	67.6	67.6	43	44.3	2	6	90	0.00	29.979 
16:00	67.6	67.6	67.6	43	44.3	1	3	90	0.00	29.972 
16:05	67.6	67.6	67.6	43	44.3	3	6	90	0.00	29.972 
16:10	67.6	67.6	67.6	43	44.3	1	6	135	0.00	29.972 
16:15	67.6	67.6	67.6	41	43.1	2	6	68	0.00	29.969 
16:20	67.6	67.6	67.6	41	43.1	3	5	112	0.00	29.969 
16:25	67.6	67.6	67.6	41	43.1	1	4	90	0.00	29.969 
16:30	67.6	67.6	67.6	42	43.7	2	7	90	0.00	29.968 
16:35	67.6	67.6	67.6	42	43.7	2	5	90	0.00	29.968 
16:40	67.6	67.6	67.6	43	44.3	1	5	112	0.00	29.968 
16:45	67.6	67.6	67.6	41	43.1	2	6	68	0.00	29.964 
16:50	67.6	67.6	67.6	43	44.3	1	4	68	0.00	29.964 
16:55	67.9	67.9	67.9	42	44.0	1	3	90	0.00	29.964 
17:00	67.9	67.9	67.9	40	42.7	2	5	90	0.00	29.961 
17:05	67.8	67.8	67.8	41	43.2	1	4	90	0.00	29.961 
17:10	67.8	67.8	67.8	41	43.2	1	5	90	0.00	29.961 
17:15	67.8	67.8	67.8	42	43.9	1	3	90	0.00	29.964 
17:20	67.9	67.9	67.9	42	44.0	2	6	90	0.00	29.964 
17:25	67.9	67.9	67.9	42	44.0	1	4	90	0.00	29.964 
17:30	67.8	67.8	67.8	42	43.9	1	4	90	0.00	29.962 
17:35	67.8	67.8	67.8	42	43.9	1	3	90	0.00	29.962 
17:40	67.8	67.8	67.8	42	43.9	2	4	90	0.00	29.962 
17:45	67.6	67.6	67.6	42	43.7	3	7	90	0.00	29.952 
17:50	67.6	67.6	67.6	42	43.7	2	7	90	0.00	29.952 
17:55	67.6	67.6	67.6	41	43.1	3	6	68	0.00	29.952 
18:00	67.4	67.4	67.4	41	42.9	2	6	90	0.00	29.951 
18:05	67.3	67.3	67.3	41	42.8	1	3	90	0.00	29.951 
18:10	67.3	67.3	67.3	42	43.4	1	6	68	0.00	29.951 
18:15	67.1	67.1	67.1	42	43.2	2	6	68	0.00	29.957 
18:20	67.1	67.1	67.1	43	43.8	1	7	68	0.00	29.957 
18:25	66.9	66.9	66.9	42	43.1	1	3	68	0.00	29.957 
18:30	66.8	66.8	66.8	42	43.0	2	6	90	0.00	29.957 
18:35	66.8	66.8	66.8	42	43.0	1	5	68	0.00	29.957 
18:40	66.6	66.6	66.6	43	43.4	1	3	68	0.00	29.957 
18:45	66.4	66.4	66.4	43	43.2	1	5	68	0.00	29.954 
18:50	66.3	66.3	66.3	44	43.7	1	4	68	0.00	29.954 
18:55	66.1	66.1	66.1	44	43.5	2	6	68	0.00	29.954 
19:00	66.0	66.0	66.0	45	44.0	1	3	68	0.00	29.954 
19:05	65.6	65.6	65.6	45	43.7	0	1	68	0.00	29.954 
19:10	65.3	65.3	65.3	46	44.0	0	2	68	0.00	29.954 
19:15	65.0	65.0	65.0	47	44.3	0	0	---	0.00	29.961 
19:20	64.5	64.5	64.5	47	43.8	0	1	68	0.00	29.961 
19:25	64.2	64.2	64.2	48	44.1	0	1	68	0.00	29.961 
19:30	63.9	63.9	63.9	50	44.9	0	0	---	0.00	29.961 
19:35	63.4	63.4	63.4	51	45.0	0	0	---	0.00	29.961 
19:40	62.7	62.7	62.7	51	44.3	0	0	---	0.00	29.961 
19:45	62.1	62.1	62.1	53	44.8	0	0	---	0.00	29.958 
19:50	61.5	61.5	61.5	53	44.2	0	0	---	0.00	29.958 
19:55	60.9	60.9	60.9	54	44.1	0	0	---	0.00	29.958 
20:00	60.4	60.4	60.4	55	44.2	0	0	---	0.00	29.963 
20:05	59.9	59.9	59.9	56	44.2	0	0	---	0.00	29.963 
20:10	59.5	59.5	59.5	57	44.3	0	0	---	0.00	29.963 
20:15	59.0	59.0	59.0	58	44.2	0	0	---	0.00	29.964 
20:20	58.6	58.6	58.6	60	44.8	0	0	---	0.00	29.964 
20:25	58.1	58.1	58.1	61	44.7	0	0	---	0.00	29.964 
20:30	57.6	57.6	57.6	62	44.7	0	0	---	0.00	29.965 
20:35	57.2	57.2	57.2	64	45.1	0	0	---	0.00	29.965 
20:40	56.9	56.9	56.9	66	45.7	0	0	---	0.00	29.965 
20:45	56.5	56.5	56.5	68	46.1	0	0	---	0.00	29.970 
20:50	56.2	56.2	56.2	70	46.5	0	0	---	0.00	29.970 
20:55	55.9	55.9	55.9	72	47.0	0	0	---	0.00	29.970 
21:00	55.6	55.6	55.6	73	47.1	0	2	68	0.00	29.971 
21:05	55.7	55.7	55.7	71	46.4	1	2	68	0.00	29.971 
21:10	56.3	56.3	56.3	69	46.3	1	4	68	0.00	29.971 
21:15	56.7	56.7	56.7	69	46.6	1	3	68	0.00	29.968 
21:20	56.9	56.9	56.9	69	46.8	1	5	112	0.00	29.968 
21:25	56.9	56.9	56.9	69	46.8	0	3	112	0.00	29.968 
21:30	56.7	56.7	56.7	70	47.0	0	2	112	0.00	29.969 
21:35	56.6	56.6	56.6	70	46.9	1	4	112	0.00	29.969 
21:40	56.5	56.5	56.5	71	47.2	1	4	112	0.00	29.969 
21:45	56.5	56.5	56.5	71	47.2	1	3	112	0.00	29.969 
21:50	56.2	56.2	56.2	72	47.3	1	3	112	0.00	29.969 
21:55	56.0	56.0	56.0	73	47.5	1	2	112	0.00	29.969 
22:00	55.7	55.7	55.7	73	47.2	0	2	112	0.00	29.971 
22:05	55.6	55.6	55.6	74	47.4	1	3	112	0.00	29.971 
22:10	55.3	55.3	55.3	74	47.2	0	1	112	0.00	29.971 
22:15	55.1	55.1	55.1	75	47.3	0	1	112	0.00	29.963 
22:20	55.1	55.1	55.1	76	47.7	0	2	112	0.00	29.963 
22:25	55.0	55.0	55.0	76	47.6	1	3	112	0.00	29.963 
22:30	55.0	55.0	55.0	76	47.6	0	2	112	0.00	29.964 
22:35	55.0	55.0	55.0	76	47.6	1	3	112	0.00	29.964 
22:40	55.0	55.0	55.0	76	47.6	1	3	112	0.00	29.964 
22:45	54.8	54.8	54.8	76	47.4	1	4	112	0.00	29.965 
22:50	54.8	54.8	54.8	77	47.7	1	3	112	0.00	29.965 
22:55	54.7	54.7	54.7	77	47.6	1	4	112	0.00	29.965 
23:00	54.5	54.5	54.5	77	47.4	1	3	112	0.00	29.963 
23:05	54.5	54.5	54.5	77	47.4	1	4	112	0.00	29.963 
23:10	54.5	54.5	54.5	78	47.8	1	3	112	0.00	29.963 
23:15	54.4	54.4	54.4	78	47.7	1	3	112	0.00	29.959 
23:20	54.2	54.2	54.2	78	47.5	1	3	112	0.00	29.959 
23:25	54.1	54.1	54.1	79	47.7	0	1	112	0.00	29.959 
23:30	54.1	54.1	54.1	79	47.7	0	2	112	0.00	29.958 
23:35	53.8	53.8	53.8	80	47.8	0	2	112	0.00	29.958 
23:40	53.6	53.6	53.6	80	47.6	0	2	112	0.00	29.958 
23:45	53.6	53.6	53.6	80	47.6	0	3	112	0.00	29.955 
23:50	53.5	53.5	53.5	81	47.8	0	1	112	0.00	29.955 
23:55	53.3	53.3	53.3	81	47.6	0	1	112	0.00	29.955 

CoCoRaHS
IN-AL-39
A2 Web Hosting
Creative Commons License
GoDaddy
search engine by freefind advanced

loaded 2018-11-19 10:23:56 • last modified 2010-11-18 10:43:29
Privacy PolicyDisclaimer
• wx.awcolley.com is powered by PmWiki v.2002016 •
• all content (unless otherwise noted) © 2018 A W Colley